sensor_id;sensor_type;location;lat;lon;timestamp;P1;durP1;ratioP1;P2;durP2;ratioP2
54412;SDS011;41533;51.390;0.074;2024-01-30T00:00:32;3.45;;;2.00;;
54412;SDS011;41533;51.390;0.074;2024-01-30T00:03:00;2.85;;;1.60;;
54412;SDS011;41533;51.390;0.074;2024-01-30T00:05:27;2.88;;;1.70;;
54412;SDS011;41533;51.390;0.074;2024-01-30T00:07:54;3.08;;;1.98;;
54412;SDS011;41533;51.390;0.074;2024-01-30T00:10:21;2.78;;;1.95;;
54412;SDS011;41533;51.390;0.074;2024-01-30T00:12:49;5.40;;;1.65;;
54412;SDS011;41533;51.390;0.074;2024-01-30T00:15:16;4.38;;;2.42;;
54412;SDS011;41533;51.390;0.074;2024-01-30T00:17:43;3.47;;;2.05;;
54412;SDS011;41533;51.390;0.074;2024-01-30T00:20:10;5.05;;;1.88;;
54412;SDS011;41533;51.390;0.074;2024-01-30T00:22:38;3.30;;;2.10;;
54412;SDS011;41533;51.390;0.074;2024-01-30T00:25:05;3.45;;;1.83;;
54412;SDS011;41533;51.390;0.074;2024-01-30T00:27:33;4.13;;;1.95;;
54412;SDS011;41533;51.390;0.074;2024-01-30T00:30:00;5.28;;;1.98;;
54412;SDS011;41533;51.390;0.074;2024-01-30T00:32:27;8.63;;;1.67;;
54412;SDS011;41533;51.390;0.074;2024-01-30T00:34:54;4.82;;;1.90;;
54412;SDS011;41533;51.390;0.074;2024-01-30T00:37:22;6.93;;;2.22;;
54412;SDS011;41533;51.390;0.074;2024-01-30T00:39:50;4.78;;;2.85;;
54412;SDS011;41533;51.390;0.074;2024-01-30T00:42:17;3.13;;;1.90;;
54412;SDS011;41533;51.390;0.074;2024-01-30T00:44:44;9.18;;;1.77;;
54412;SDS011;41533;51.390;0.074;2024-01-30T00:47:12;6.82;;;2.17;;
54412;SDS011;41533;51.390;0.074;2024-01-30T00:49:39;3.45;;;1.85;;
54412;SDS011;41533;51.390;0.074;2024-01-30T00:52:06;5.63;;;2.47;;
54412;SDS011;41533;51.390;0.074;2024-01-30T00:54:34;4.57;;;1.90;;
54412;SDS011;41533;51.390;0.074;2024-01-30T00:57:01;3.75;;;2.10;;
54412;SDS011;41533;51.390;0.074;2024-01-30T00:59:28;4.95;;;2.00;;
54412;SDS011;41533;51.390;0.074;2024-01-30T01:01:55;3.33;;;1.90;;
54412;SDS011;41533;51.390;0.074;2024-01-30T01:04:23;3.50;;;1.88;;
54412;SDS011;41533;51.390;0.074;2024-01-30T01:06:50;6.95;;;2.10;;
54412;SDS011;41533;51.390;0.074;2024-01-30T01:09:17;2.13;;;1.40;;
54412;SDS011;41533;51.390;0.074;2024-01-30T01:11:45;4.15;;;1.50;;
54412;SDS011;41533;51.390;0.074;2024-01-30T01:14:12;5.03;;;1.90;;
54412;SDS011;41533;51.390;0.074;2024-01-30T01:16:39;4.45;;;2.10;;
54412;SDS011;41533;51.390;0.074;2024-01-30T01:19:06;1.55;;;1.10;;
54412;SDS011;41533;51.390;0.074;2024-01-30T01:21:34;4.43;;;1.60;;
54412;SDS011;41533;51.390;0.074;2024-01-30T01:24:01;3.10;;;1.33;;
54412;SDS011;41533;51.390;0.074;2024-01-30T01:26:28;1.45;;;1.20;;
54412;SDS011;41533;51.390;0.074;2024-01-30T01:28:55;2.92;;;1.38;;
54412;SDS011;41533;51.390;0.074;2024-01-30T01:31:23;2.50;;;1.25;;
54412;SDS011;41533;51.390;0.074;2024-01-30T01:33:52;5.30;;;1.52;;
54412;SDS011;41533;51.390;0.074;2024-01-30T01:36:19;4.20;;;1.48;;
54412;SDS011;41533;51.390;0.074;2024-01-30T01:38:46;2.22;;;1.23;;
54412;SDS011;41533;51.390;0.074;2024-01-30T01:41:14;2.42;;;1.00;;
54412;SDS011;41533;51.390;0.074;2024-01-30T01:43:41;3.47;;;1.00;;
54412;SDS011;41533;51.390;0.074;2024-01-30T01:46:08;1.83;;;1.27;;
54412;SDS011;41533;51.390;0.074;2024-01-30T01:48:36;1.83;;;1.13;;
54412;SDS011;41533;51.390;0.074;2024-01-30T01:51:04;1.88;;;1.05;;
54412;SDS011;41533;51.390;0.074;2024-01-30T01:53:31;4.68;;;1.45;;
54412;SDS011;41533;51.390;0.074;2024-01-30T01:55:59;3.95;;;1.48;;
54412;SDS011;41533;51.390;0.074;2024-01-30T01:58:27;3.20;;;1.27;;
54412;SDS011;41533;51.390;0.074;2024-01-30T02:00:56;1.48;;;0.88;;
54412;SDS011;41533;51.390;0.074;2024-01-30T02:03:23;2.05;;;1.10;;
54412;SDS011;41533;51.390;0.074;2024-01-30T02:05:51;1.42;;;0.85;;
54412;SDS011;41533;51.390;0.074;2024-01-30T02:08:18;1.08;;;0.80;;
54412;SDS011;41533;51.390;0.074;2024-01-30T02:10:45;2.47;;;0.70;;
54412;SDS011;41533;51.390;0.074;2024-01-30T02:13:13;5.90;;;0.98;;
54412;SDS011;41533;51.390;0.074;2024-01-30T02:15:40;1.05;;;0.68;;
54412;SDS011;41533;51.390;0.074;2024-01-30T02:18:07;3.00;;;1.05;;
54412;SDS011;41533;51.390;0.074;2024-01-30T02:20:35;0.75;;;0.63;;
54412;SDS011;41533;51.390;0.074;2024-01-30T02:23:02;0.98;;;0.50;;
54412;SDS011;41533;51.390;0.074;2024-01-30T02:25:33;0.73;;;0.55;;
54412;SDS011;41533;51.390;0.074;2024-01-30T02:28:00;1.85;;;0.95;;
54412;SDS011;41533;51.390;0.074;2024-01-30T02:30:28;2.38;;;0.93;;
54412;SDS011;41533;51.390;0.074;2024-01-30T02:32:55;0.60;;;0.40;;
54412;SDS011;41533;51.390;0.074;2024-01-30T02:35:22;0.60;;;0.57;;
54412;SDS011;41533;51.390;0.074;2024-01-30T02:37:50;2.20;;;0.65;;
54412;SDS011;41533;51.390;0.074;2024-01-30T02:40:17;0.85;;;0.52;;
54412;SDS011;41533;51.390;0.074;2024-01-30T02:42:44;1.65;;;0.68;;
54412;SDS011;41533;51.390;0.074;2024-01-30T02:45:12;1.40;;;0.70;;
54412;SDS011;41533;51.390;0.074;2024-01-30T02:47:39;2.28;;;0.60;;
54412;SDS011;41533;51.390;0.074;2024-01-30T02:50:07;1.33;;;0.68;;
54412;SDS011;41533;51.390;0.074;2024-01-30T02:52:34;2.38;;;0.80;;
54412;SDS011;41533;51.390;0.074;2024-01-30T02:55:02;1.17;;;0.40;;
54412;SDS011;41533;51.390;0.074;2024-01-30T02:57:29;0.25;;;0.25;;
54412;SDS011;41533;51.390;0.074;2024-01-30T02:59:57;0.70;;;0.40;;
54412;SDS011;41533;51.390;0.074;2024-01-30T03:02:24;1.08;;;0.90;;
54412;SDS011;41533;51.390;0.074;2024-01-30T03:04:51;0.65;;;0.30;;
54412;SDS011;41533;51.390;0.074;2024-01-30T03:07:18;0.82;;;0.50;;
54412;SDS011;41533;51.390;0.074;2024-01-30T03:09:46;2.17;;;0.63;;
54412;SDS011;41533;51.390;0.074;2024-01-30T03:12:13;0.77;;;0.75;;
54412;SDS011;41533;51.390;0.074;2024-01-30T03:14:40;1.65;;;0.82;;
54412;SDS011;41533;51.390;0.074;2024-01-30T03:17:08;0.93;;;0.52;;
54412;SDS011;41533;51.390;0.074;2024-01-30T03:19:35;0.65;;;0.65;;
54412;SDS011;41533;51.390;0.074;2024-01-30T03:22:02;0.57;;;0.57;;
54412;SDS011;41533;51.390;0.074;2024-01-30T03:24:30;3.15;;;1.08;;
54412;SDS011;41533;51.390;0.074;2024-01-30T03:26:57;4.40;;;1.05;;
54412;SDS011;41533;51.390;0.074;2024-01-30T03:29:24;5.03;;;0.88;;
54412;SDS011;41533;51.390;0.074;2024-01-30T03:31:52;2.10;;;0.32;;
54412;SDS011;41533;51.390;0.074;2024-01-30T03:34:19;0.73;;;0.43;;
54412;SDS011;41533;51.390;0.074;2024-01-30T03:36:46;1.05;;;0.70;;
54412;SDS011;41533;51.390;0.074;2024-01-30T03:39:14;0.55;;;0.40;;
54412;SDS011;41533;51.390;0.074;2024-01-30T03:41:44;0.57;;;0.43;;
54412;SDS011;41533;51.390;0.074;2024-01-30T03:44:11;4.75;;;0.95;;
54412;SDS011;41533;51.390;0.074;2024-01-30T03:46:38;1.85;;;0.75;;
54412;SDS011;41533;51.390;0.074;2024-01-30T03:49:06;0.63;;;0.60;;
54412;SDS011;41533;51.390;0.074;2024-01-30T03:51:33;3.15;;;0.85;;
54412;SDS011;41533;51.390;0.074;2024-01-30T03:54:00;0.32;;;0.32;;
54412;SDS011;41533;51.390;0.074;2024-01-30T03:56:27;0.70;;;0.40;;
54412;SDS011;41533;51.390;0.074;2024-01-30T03:58:55;0.85;;;0.50;;
54412;SDS011;41533;51.390;0.074;2024-01-30T04:01:22;1.08;;;0.60;;
54412;SDS011;41533;51.390;0.074;2024-01-30T04:03:50;0.75;;;0.40;;
54412;SDS011;41533;51.390;0.074;2024-01-30T04:06:17;1.20;;;0.38;;
54412;SDS011;41533;51.390;0.074;2024-01-30T04:08:44;0.38;;;0.20;;
54412;SDS011;41533;51.390;0.074;2024-01-30T04:11:12;4.07;;;0.60;;
54412;SDS011;41533;51.390;0.074;2024-01-30T04:13:39;0.20;;;0.20;;
54412;SDS011;41533;51.390;0.074;2024-01-30T04:16:06;0.32;;;0.30;;
54412;SDS011;41533;51.390;0.074;2024-01-30T04:18:33;0.43;;;0.40;;
54412;SDS011;41533;51.390;0.074;2024-01-30T04:21:01;0.75;;;0.55;;
54412;SDS011;41533;51.390;0.074;2024-01-30T04:23:28;1.25;;;0.80;;
54412;SDS011;41533;51.390;0.074;2024-01-30T04:25:55;0.50;;;0.30;;
54412;SDS011;41533;51.390;0.074;2024-01-30T04:28:22;0.10;;;0.10;;
54412;SDS011;41533;51.390;0.074;2024-01-30T04:30:50;0.90;;;0.47;;
54412;SDS011;41533;51.390;0.074;2024-01-30T04:33:18;0.25;;;0.25;;
54412;SDS011;41533;51.390;0.074;2024-01-30T04:35:45;2.08;;;0.30;;
54412;SDS011;41533;51.390;0.074;2024-01-30T04:38:12;0.20;;;0.20;;
54412;SDS011;41533;51.390;0.074;2024-01-30T04:40:41;0.40;;;0.30;;
54412;SDS011;41533;51.390;0.074;2024-01-30T04:43:08;0.55;;;0.45;;
54412;SDS011;41533;51.390;0.074;2024-01-30T04:45:36;0.30;;;0.30;;
54412;SDS011;41533;51.390;0.074;2024-01-30T04:48:03;0.40;;;0.30;;
54412;SDS011;41533;51.390;0.074;2024-01-30T04:50:30;0.25;;;0.25;;
54412;SDS011;41533;51.390;0.074;2024-01-30T04:52:57;0.20;;;0.20;;
54412;SDS011;41533;51.390;0.074;2024-01-30T04:55:25;0.25;;;0.20;;
54412;SDS011;41533;51.390;0.074;2024-01-30T04:57:52;1.23;;;0.40;;
54412;SDS011;41533;51.390;0.074;2024-01-30T05:00:19;0.15;;;0.15;;
54412;SDS011;41533;51.390;0.074;2024-01-30T05:02:47;3.67;;;0.60;;
54412;SDS011;41533;51.390;0.074;2024-01-30T05:05:14;0.20;;;0.20;;
54412;SDS011;41533;51.390;0.074;2024-01-30T05:07:42;0.50;;;0.50;;
54412;SDS011;41533;51.390;0.074;2024-01-30T05:10:09;1.25;;;0.32;;
54412;SDS011;41533;51.390;0.074;2024-01-30T05:12:36;0.20;;;0.20;;
54412;SDS011;41533;51.390;0.074;2024-01-30T05:15:03;1.20;;;0.30;;
54412;SDS011;41533;51.390;0.074;2024-01-30T05:17:31;0.22;;;0.22;;
54412;SDS011;41533;51.390;0.074;2024-01-30T05:19:58;0.30;;;0.30;;
54412;SDS011;41533;51.390;0.074;2024-01-30T05:22:26;0.80;;;0.50;;
54412;SDS011;41533;51.390;0.074;2024-01-30T05:24:53;0.35;;;0.35;;
54412;SDS011;41533;51.390;0.074;2024-01-30T05:27:21;0.30;;;0.30;;
54412;SDS011;41533;51.390;0.074;2024-01-30T05:29:48;0.80;;;0.65;;
54412;SDS011;41533;51.390;0.074;2024-01-30T05:32:16;0.38;;;0.35;;
54412;SDS011;41533;51.390;0.074;2024-01-30T05:34:44;2.00;;;0.35;;
54412;SDS011;41533;51.390;0.074;2024-01-30T05:37:11;0.35;;;0.30;;
54412;SDS011;41533;51.390;0.074;2024-01-30T05:39:43;0.27;;;0.27;;
54412;SDS011;41533;51.390;0.074;2024-01-30T05:42:11;0.80;;;0.40;;
54412;SDS011;41533;51.390;0.074;2024-01-30T05:44:38;0.20;;;0.20;;
54412;SDS011;41533;51.390;0.074;2024-01-30T05:47:06;0.30;;;0.30;;
54412;SDS011;41533;51.390;0.074;2024-01-30T05:49:33;0.95;;;0.60;;
54412;SDS011;41533;51.390;0.074;2024-01-30T05:52:02;1.30;;;0.50;;
54412;SDS011;41533;51.390;0.074;2024-01-30T05:54:29;5.95;;;0.38;;
54412;SDS011;41533;51.390;0.074;2024-01-30T05:56:56;0.77;;;0.30;;
54412;SDS011;41533;51.390;0.074;2024-01-30T05:59:23;0.20;;;0.20;;
54412;SDS011;41533;51.390;0.074;2024-01-30T06:01:51;0.32;;;0.32;;
54412;SDS011;41533;51.390;0.074;2024-01-30T06:04:18;0.20;;;0.20;;
54412;SDS011;41533;51.390;0.074;2024-01-30T06:06:45;0.20;;;0.20;;
54412;SDS011;41533;51.390;0.074;2024-01-30T06:09:13;0.35;;;0.30;;
54412;SDS011;41533;51.390;0.074;2024-01-30T06:11:41;1.35;;;0.30;;
54412;SDS011;41533;51.390;0.074;2024-01-30T06:14:08;0.30;;;0.30;;
54412;SDS011;41533;51.390;0.074;2024-01-30T06:16:35;0.20;;;0.20;;
54412;SDS011;41533;51.390;0.074;2024-01-30T06:19:02;0.47;;;0.30;;
54412;SDS011;41533;51.390;0.074;2024-01-30T06:21:30;0.40;;;0.40;;
54412;SDS011;41533;51.390;0.074;2024-01-30T06:23:58;0.20;;;0.20;;
54412;SDS011;41533;51.390;0.074;2024-01-30T06:26:26;0.22;;;0.22;;
54412;SDS011;41533;51.390;0.074;2024-01-30T06:28:53;0.30;;;0.30;;
54412;SDS011;41533;51.390;0.074;2024-01-30T06:31:20;0.60;;;0.25;;
54412;SDS011;41533;51.390;0.074;2024-01-30T06:33:47;0.13;;;0.13;;
54412;SDS011;41533;51.390;0.074;2024-01-30T06:36:15;0.40;;;0.40;;
54412;SDS011;41533;51.390;0.074;2024-01-30T06:38:42;0.15;;;0.15;;
54412;SDS011;41533;51.390;0.074;2024-01-30T06:41:09;0.35;;;0.35;;
54412;SDS011;41533;51.390;0.074;2024-01-30T06:43:37;0.20;;;0.17;;
54412;SDS011;41533;51.390;0.074;2024-01-30T06:46:04;1.05;;;0.50;;
54412;SDS011;41533;51.390;0.074;2024-01-30T06:48:31;0.60;;;0.30;;
54412;SDS011;41533;51.390;0.074;2024-01-30T06:50:58;0.30;;;0.30;;
54412;SDS011;41533;51.390;0.074;2024-01-30T06:53:26;3.85;;;0.98;;
54412;SDS011;41533;51.390;0.074;2024-01-30T06:55:53;0.55;;;0.40;;
54412;SDS011;41533;51.390;0.074;2024-01-30T06:58:20;2.05;;;0.70;;
54412;SDS011;41533;51.390;0.074;2024-01-30T07:00:48;0.75;;;0.73;;
54412;SDS011;41533;51.390;0.074;2024-01-30T07:03:15;1.42;;;0.60;;
54412;SDS011;41533;51.390;0.074;2024-01-30T07:05:43;0.73;;;0.68;;
54412;SDS011;41533;51.390;0.074;2024-01-30T07:08:10;0.52;;;0.52;;
54412;SDS011;41533;51.390;0.074;2024-01-30T07:10:37;1.30;;;0.88;;
54412;SDS011;41533;51.390;0.074;2024-01-30T07:13:04;0.90;;;0.55;;
54412;SDS011;41533;51.390;0.074;2024-01-30T07:15:32;0.70;;;0.70;;
54412;SDS011;41533;51.390;0.074;2024-01-30T07:18:00;1.45;;;0.90;;
54412;SDS011;41533;51.390;0.074;2024-01-30T07:20:27;1.05;;;0.63;;
54412;SDS011;41533;51.390;0.074;2024-01-30T07:22:54;1.00;;;0.98;;
54412;SDS011;41533;51.390;0.074;2024-01-30T07:25:22;1.33;;;0.88;;
54412;SDS011;41533;51.390;0.074;2024-01-30T07:27:53;0.93;;;0.70;;
54412;SDS011;41533;51.390;0.074;2024-01-30T07:30:21;2.55;;;0.60;;
54412;SDS011;41533;51.390;0.074;2024-01-30T07:32:48;2.38;;;1.05;;
54412;SDS011;41533;51.390;0.074;2024-01-30T07:35:15;1.83;;;0.90;;
54412;SDS011;41533;51.390;0.074;2024-01-30T07:37:43;1.58;;;0.80;;
54412;SDS011;41533;51.390;0.074;2024-01-30T07:40:10;1.33;;;1.02;;
54412;SDS011;41533;51.390;0.074;2024-01-30T07:42:37;1.67;;;0.80;;
54412;SDS011;41533;51.390;0.074;2024-01-30T07:45:05;2.05;;;0.50;;
54412;SDS011;41533;51.390;0.074;2024-01-30T07:47:32;0.50;;;0.50;;
54412;SDS011;41533;51.390;0.074;2024-01-30T07:50:00;0.60;;;0.60;;
54412;SDS011;41533;51.390;0.074;2024-01-30T07:52:27;1.05;;;0.77;;
54412;SDS011;41533;51.390;0.074;2024-01-30T07:54:55;0.52;;;0.52;;
54412;SDS011;41533;51.390;0.074;2024-01-30T07:57:22;2.35;;;1.05;;
54412;SDS011;41533;51.390;0.074;2024-01-30T07:59:51;1.88;;;0.80;;
54412;SDS011;41533;51.390;0.074;2024-01-30T08:02:18;0.75;;;0.70;;
54412;SDS011;41533;51.390;0.074;2024-01-30T08:04:45;1.77;;;0.50;;
54412;SDS011;41533;51.390;0.074;2024-01-30T08:07:15;0.95;;;0.80;;
54412;SDS011;41533;51.390;0.074;2024-01-30T08:09:44;1.95;;;0.60;;
54412;SDS011;41533;51.390;0.074;2024-01-30T08:12:12;1.23;;;0.93;;
54412;SDS011;41533;51.390;0.074;2024-01-30T08:14:41;0.45;;;0.45;;
54412;SDS011;41533;51.390;0.074;2024-01-30T08:17:08;1.17;;;0.70;;
54412;SDS011;41533;51.390;0.074;2024-01-30T08:19:35;1.38;;;0.70;;
54412;SDS011;41533;51.390;0.074;2024-01-30T08:22:03;0.65;;;0.57;;
54412;SDS011;41533;51.390;0.074;2024-01-30T08:24:30;0.85;;;0.47;;
54412;SDS011;41533;51.390;0.074;2024-01-30T08:26:57;0.60;;;0.55;;
54412;SDS011;41533;51.390;0.074;2024-01-30T08:29:25;1.08;;;0.68;;
54412;SDS011;41533;51.390;0.074;2024-01-30T08:31:52;0.60;;;0.60;;
54412;SDS011;41533;51.390;0.074;2024-01-30T08:34:20;1.55;;;0.60;;
54412;SDS011;41533;51.390;0.074;2024-01-30T08:36:48;0.88;;;0.63;;
54412;SDS011;41533;51.390;0.074;2024-01-30T08:39:15;0.65;;;0.55;;
54412;SDS011;41533;51.390;0.074;2024-01-30T08:41:42;0.55;;;0.52;;
54412;SDS011;41533;51.390;0.074;2024-01-30T08:44:10;0.70;;;0.70;;
54412;SDS011;41533;51.390;0.074;2024-01-30T08:46:38;0.40;;;0.38;;
54412;SDS011;41533;51.390;0.074;2024-01-30T08:49:05;1.02;;;0.88;;
54412;SDS011;41533;51.390;0.074;2024-01-30T08:51:32;0.40;;;0.40;;
54412;SDS011;41533;51.390;0.074;2024-01-30T08:54:00;0.35;;;0.35;;
54412;SDS011;41533;51.390;0.074;2024-01-30T08:56:28;0.20;;;0.20;;
54412;SDS011;41533;51.390;0.074;2024-01-30T08:58:55;0.47;;;0.40;;
54412;SDS011;41533;51.390;0.074;2024-01-30T09:01:22;0.40;;;0.40;;
54412;SDS011;41533;51.390;0.074;2024-01-30T09:03:50;0.30;;;0.30;;
54412;SDS011;41533;51.390;0.074;2024-01-30T09:06:17;2.65;;;1.05;;
54412;SDS011;41533;51.390;0.074;2024-01-30T09:08:45;0.30;;;0.30;;
54412;SDS011;41533;51.390;0.074;2024-01-30T09:11:12;0.20;;;0.10;;
54412;SDS011;41533;51.390;0.074;2024-01-30T09:13:40;0.30;;;0.30;;
54412;SDS011;41533;51.390;0.074;2024-01-30T09:16:07;2.08;;;0.30;;
54412;SDS011;41533;51.390;0.074;2024-01-30T09:18:35;0.40;;;0.40;;
54412;SDS011;41533;51.390;0.074;2024-01-30T09:21:02;0.20;;;0.20;;
54412;SDS011;41533;51.390;0.074;2024-01-30T09:23:29;2.00;;;0.30;;
54412;SDS011;41533;51.390;0.074;2024-01-30T09:25:56;0.22;;;0.22;;
54412;SDS011;41533;51.390;0.074;2024-01-30T09:28:24;0.28;;;0.28;;
54412;SDS011;41533;51.390;0.074;2024-01-30T09:30:53;0.70;;;0.25;;
54412;SDS011;41533;51.390;0.074;2024-01-30T09:33:20;0.32;;;0.32;;
54412;SDS011;41533;51.390;0.074;2024-01-30T09:35:48;0.40;;;0.30;;
54412;SDS011;41533;51.390;0.074;2024-01-30T09:38:15;0.20;;;0.20;;
54412;SDS011;41533;51.390;0.074;2024-01-30T09:40:42;0.40;;;0.40;;
54412;SDS011;41533;51.390;0.074;2024-01-30T09:43:10;0.22;;;0.20;;
54412;SDS011;41533;51.390;0.074;2024-01-30T09:45:40;0.20;;;0.20;;
54412;SDS011;41533;51.390;0.074;2024-01-30T09:48:09;0.47;;;0.38;;
54412;SDS011;41533;51.390;0.074;2024-01-30T09:50:37;0.40;;;0.35;;
54412;SDS011;41533;51.390;0.074;2024-01-30T09:53:04;0.28;;;0.28;;
54412;SDS011;41533;51.390;0.074;2024-01-30T09:55:33;0.20;;;0.20;;
54412;SDS011;41533;51.390;0.074;2024-01-30T09:58:01;0.22;;;0.22;;
54412;SDS011;41533;51.390;0.074;2024-01-30T10:00:28;0.20;;;0.20;;
54412;SDS011;41533;51.390;0.074;2024-01-30T10:02:55;0.32;;;0.32;;
54412;SDS011;41533;51.390;0.074;2024-01-30T10:05:23;0.10;;;0.10;;
54412;SDS011;41533;51.390;0.074;2024-01-30T10:07:53;0.20;;;0.20;;
54412;SDS011;41533;51.390;0.074;2024-01-30T10:10:23;0.60;;;0.60;;
54412;SDS011;41533;51.390;0.074;2024-01-30T10:12:53;0.22;;;0.22;;
54412;SDS011;41533;51.390;0.074;2024-01-30T10:15:20;0.20;;;0.20;;
54412;SDS011;41533;51.390;0.074;2024-01-30T10:17:48;0.10;;;0.10;;
54412;SDS011;41533;51.390;0.074;2024-01-30T10:20:15;0.30;;;0.30;;
54412;SDS011;41533;51.390;0.074;2024-01-30T10:22:42;0.22;;;0.22;;
54412;SDS011;41533;51.390;0.074;2024-01-30T10:25:11;0.38;;;0.38;;
54412;SDS011;41533;51.390;0.074;2024-01-30T10:27:39;0.20;;;0.20;;
54412;SDS011;41533;51.390;0.074;2024-01-30T10:30:07;0.10;;;0.10;;
54412;SDS011;41533;51.390;0.074;2024-01-30T10:32:34;2.13;;;0.50;;
54412;SDS011;41533;51.390;0.074;2024-01-30T10:35:02;0.47;;;0.20;;
54412;SDS011;41533;51.390;0.074;2024-01-30T10:37:29;0.40;;;0.40;;
54412;SDS011;41533;51.390;0.074;2024-01-30T10:39:59;0.20;;;0.20;;
54412;SDS011;41533;51.390;0.074;2024-01-30T10:42:29;0.10;;;0.10;;
54412;SDS011;41533;51.390;0.074;2024-01-30T10:45:11;1.55;;;0.38;;
54412;SDS011;41533;51.390;0.074;2024-01-30T10:47:43;0.20;;;0.20;;
54412;SDS011;41533;51.390;0.074;2024-01-30T10:50:11;0.25;;;0.20;;
54412;SDS011;41533;51.390;0.074;2024-01-30T10:52:39;0.30;;;0.30;;
54412;SDS011;41533;51.390;0.074;2024-01-30T10:55:06;0.30;;;0.30;;
54412;SDS011;41533;51.390;0.074;2024-01-30T10:57:34;0.32;;;0.30;;
54412;SDS011;41533;51.390;0.074;2024-01-30T11:00:03;1.45;;;0.40;;
54412;SDS011;41533;51.390;0.074;2024-01-30T11:02:41;0.30;;;0.30;;
54412;SDS011;41533;51.390;0.074;2024-01-30T11:05:09;1.98;;;0.30;;
54412;SDS011;41533;51.390;0.074;2024-01-30T11:07:38;0.30;;;0.30;;
54412;SDS011;41533;51.390;0.074;2024-01-30T11:10:06;0.30;;;0.30;;
54412;SDS011;41533;51.390;0.074;2024-01-30T11:12:39;0.32;;;0.32;;
54412;SDS011;41533;51.390;0.074;2024-01-30T11:15:12;0.32;;;0.32;;
54412;SDS011;41533;51.390;0.074;2024-01-30T11:20:19;1.13;;;0.68;;
54412;SDS011;41533;51.390;0.074;2024-01-30T11:22:47;0.77;;;0.32;;
54412;SDS011;41533;51.390;0.074;2024-01-30T11:25:15;0.60;;;0.52;;
54412;SDS011;41533;51.390;0.074;2024-01-30T11:27:44;0.17;;;0.17;;
54412;SDS011;41533;51.390;0.074;2024-01-30T11:30:21;0.30;;;0.30;;
54412;SDS011;41533;51.390;0.074;2024-01-30T11:33:12;0.30;;;0.30;;
54412;SDS011;41533;51.390;0.074;2024-01-30T11:35:43;0.20;;;0.20;;
54412;SDS011;41533;51.390;0.074;2024-01-30T11:38:12;0.20;;;0.20;;
54412;SDS011;41533;51.390;0.074;2024-01-30T11:40:40;0.40;;;0.40;;
54412;SDS011;41533;51.390;0.074;2024-01-30T11:43:08;0.43;;;0.40;;
54412;SDS011;41533;51.390;0.074;2024-01-30T11:45:36;0.35;;;0.35;;
54412;SDS011;41533;51.390;0.074;2024-01-30T11:48:04;0.43;;;0.30;;
54412;SDS011;41533;51.390;0.074;2024-01-30T11:50:38;3.42;;;0.43;;
54412;SDS011;41533;51.390;0.074;2024-01-30T11:53:05;0.20;;;0.20;;
54412;SDS011;41533;51.390;0.074;2024-01-30T11:55:32;0.30;;;0.30;;
54412;SDS011;41533;51.390;0.074;2024-01-30T11:58:01;0.20;;;0.20;;
54412;SDS011;41533;51.390;0.074;2024-01-30T12:00:28;0.43;;;0.43;;
54412;SDS011;41533;51.390;0.074;2024-01-30T12:02:58;1.58;;;0.57;;
54412;SDS011;41533;51.390;0.074;2024-01-30T12:05:27;0.22;;;0.20;;
54412;SDS011;41533;51.390;0.074;2024-01-30T12:07:55;1.98;;;0.57;;
54412;SDS011;41533;51.390;0.074;2024-01-30T12:10:26;0.38;;;0.30;;
54412;SDS011;41533;51.390;0.074;2024-01-30T12:12:55;0.55;;;0.40;;
54412;SDS011;41533;51.390;0.074;2024-01-30T12:15:22;0.32;;;0.32;;
54412;SDS011;41533;51.390;0.074;2024-01-30T12:17:50;0.35;;;0.35;;
54412;SDS011;41533;51.390;0.074;2024-01-30T12:20:18;0.30;;;0.30;;
54412;SDS011;41533;51.390;0.074;2024-01-30T12:22:46;0.30;;;0.30;;
54412;SDS011;41533;51.390;0.074;2024-01-30T12:25:15;0.35;;;0.35;;
54412;SDS011;41533;51.390;0.074;2024-01-30T12:27:43;0.30;;;0.30;;
54412;SDS011;41533;51.390;0.074;2024-01-30T12:30:11;1.67;;;0.60;;
54412;SDS011;41533;51.390;0.074;2024-01-30T12:32:44;0.38;;;0.32;;
54412;SDS011;41533;51.390;0.074;2024-01-30T12:35:12;0.40;;;0.40;;
54412;SDS011;41533;51.390;0.074;2024-01-30T12:37:40;0.20;;;0.20;;
54412;SDS011;41533;51.390;0.074;2024-01-30T12:40:07;1.08;;;0.30;;
54412;SDS011;41533;51.390;0.074;2024-01-30T12:42:35;0.20;;;0.20;;
54412;SDS011;41533;51.390;0.074;2024-01-30T12:45:03;0.57;;;0.57;;
54412;SDS011;41533;51.390;0.074;2024-01-30T12:47:31;0.88;;;0.40;;
54412;SDS011;41533;51.390;0.074;2024-01-30T12:49:59;0.40;;;0.40;;
54412;SDS011;41533;51.390;0.074;2024-01-30T12:52:26;0.47;;;0.32;;
54412;SDS011;41533;51.390;0.074;2024-01-30T12:54:54;0.50;;;0.50;;
54412;SDS011;41533;51.390;0.074;2024-01-30T12:57:21;0.55;;;0.40;;
54412;SDS011;41533;51.390;0.074;2024-01-30T12:59:49;0.28;;;0.28;;
54412;SDS011;41533;51.390;0.074;2024-01-30T13:02:16;0.20;;;0.20;;
54412;SDS011;41533;51.390;0.074;2024-01-30T13:04:43;0.38;;;0.32;;
54412;SDS011;41533;51.390;0.074;2024-01-30T13:07:13;0.15;;;0.15;;
54412;SDS011;41533;51.390;0.074;2024-01-30T13:09:41;0.25;;;0.25;;
54412;SDS011;41533;51.390;0.074;2024-01-30T13:12:08;1.27;;;0.38;;
54412;SDS011;41533;51.390;0.074;2024-01-30T13:14:35;1.05;;;0.98;;
54412;SDS011;41533;51.390;0.074;2024-01-30T13:17:03;0.40;;;0.35;;
54412;SDS011;41533;51.390;0.074;2024-01-30T13:19:30;0.35;;;0.35;;
54412;SDS011;41533;51.390;0.074;2024-01-30T13:21:57;0.63;;;0.47;;
54412;SDS011;41533;51.390;0.074;2024-01-30T13:24:25;0.22;;;0.22;;
54412;SDS011;41533;51.390;0.074;2024-01-30T13:26:52;0.63;;;0.40;;
54412;SDS011;41533;51.390;0.074;2024-01-30T13:29:19;0.40;;;0.40;;
54412;SDS011;41533;51.390;0.074;2024-01-30T13:31:47;0.30;;;0.30;;
54412;SDS011;41533;51.390;0.074;2024-01-30T13:34:14;0.47;;;0.40;;
54412;SDS011;41533;51.390;0.074;2024-01-30T13:36:42;0.50;;;0.50;;
54412;SDS011;41533;51.390;0.074;2024-01-30T13:39:10;0.20;;;0.20;;
54412;SDS011;41533;51.390;0.074;2024-01-30T13:41:38;0.75;;;0.20;;
54412;SDS011;41533;51.390;0.074;2024-01-30T13:44:05;0.30;;;0.30;;
54412;SDS011;41533;51.390;0.074;2024-01-30T13:46:32;0.40;;;0.30;;
54412;SDS011;41533;51.390;0.074;2024-01-30T13:49:00;0.40;;;0.40;;
54412;SDS011;41533;51.390;0.074;2024-01-30T13:51:27;0.32;;;0.32;;
54412;SDS011;41533;51.390;0.074;2024-01-30T13:53:54;0.63;;;0.40;;
54412;SDS011;41533;51.390;0.074;2024-01-30T13:56:22;0.30;;;0.30;;
54412;SDS011;41533;51.390;0.074;2024-01-30T13:58:49;0.30;;;0.30;;
54412;SDS011;41533;51.390;0.074;2024-01-30T14:01:19;0.30;;;0.30;;
54412;SDS011;41533;51.390;0.074;2024-01-30T14:03:47;0.77;;;0.40;;
54412;SDS011;41533;51.390;0.074;2024-01-30T14:06:14;0.30;;;0.30;;
54412;SDS011;41533;51.390;0.074;2024-01-30T14:08:42;0.20;;;0.20;;
54412;SDS011;41533;51.390;0.074;2024-01-30T14:11:11;1.25;;;0.50;;
54412;SDS011;41533;51.390;0.074;2024-01-30T14:13:38;0.73;;;0.30;;
54412;SDS011;41533;51.390;0.074;2024-01-30T14:16:05;0.52;;;0.38;;
54412;SDS011;41533;51.390;0.074;2024-01-30T14:18:34;0.50;;;0.47;;
54412;SDS011;41533;51.390;0.074;2024-01-30T14:21:02;0.25;;;0.25;;
54412;SDS011;41533;51.390;0.074;2024-01-30T14:23:29;0.52;;;0.50;;
54412;SDS011;41533;51.390;0.074;2024-01-30T14:25:56;0.35;;;0.35;;
54412;SDS011;41533;51.390;0.074;2024-01-30T14:28:24;0.20;;;0.20;;
54412;SDS011;41533;51.390;0.074;2024-01-30T14:30:51;0.22;;;0.22;;
54412;SDS011;41533;51.390;0.074;2024-01-30T14:33:19;0.30;;;0.30;;
54412;SDS011;41533;51.390;0.074;2024-01-30T14:35:46;0.35;;;0.30;;
54412;SDS011;41533;51.390;0.074;2024-01-30T14:38:14;1.98;;;0.40;;
54412;SDS011;41533;51.390;0.074;2024-01-30T14:40:41;0.88;;;0.30;;
54412;SDS011;41533;51.390;0.074;2024-01-30T14:43:08;0.47;;;0.30;;
54412;SDS011;41533;51.390;0.074;2024-01-30T14:45:35;0.40;;;0.40;;
54412;SDS011;41533;51.390;0.074;2024-01-30T14:48:03;0.80;;;0.40;;
54412;SDS011;41533;51.390;0.074;2024-01-30T14:50:30;0.30;;;0.30;;
54412;SDS011;41533;51.390;0.074;2024-01-30T14:52:58;0.55;;;0.35;;